createdAt,value
2023-01-11T00:02:45.903Z,0.40
2023-01-11T00:06:48.742Z,0.40
2023-01-11T00:10:56.041Z,0.35
2023-01-11T00:14:58.762Z,0.40
2023-01-11T00:19:01.740Z,0.40
2023-01-11T00:23:04.598Z,0.32
2023-01-11T00:27:08.919Z,0.47
2023-01-11T00:31:11.771Z,0.30
2023-01-11T00:35:15.205Z,0.50
2023-01-11T00:39:17.961Z,0.40
2023-01-11T00:43:39.452Z,0.35
2023-01-11T00:48:01.802Z,0.30
2023-01-11T00:52:08.710Z,0.30
2023-01-11T00:56:11.436Z,0.20
2023-01-11T01:00:16.317Z,0.30
2023-01-11T01:04:19.066Z,0.40
2023-01-11T01:08:21.786Z,0.50
2023-01-11T01:12:38.477Z,0.30
2023-01-11T01:16:42.619Z,0.20
2023-01-11T01:20:45.366Z,0.30
2023-01-11T01:24:48.095Z,0.28
2023-01-11T01:28:50.971Z,0.17
2023-01-11T01:32:55.038Z,0.30
2023-01-11T01:36:57.889Z,0.17
2023-01-11T01:41:00.656Z,0.40
2023-01-11T01:45:09.041Z,0.30
2023-01-11T01:49:16.226Z,0.28
2023-01-11T01:53:24.566Z,0.20
2023-01-11T01:57:31.466Z,0.20
2023-01-11T02:01:49.349Z,0.20
2023-01-11T02:05:54.499Z,0.38
2023-01-11T02:10:01.494Z,0.30
2023-01-11T02:14:09.952Z,0.00
2023-01-11T02:18:14.660Z,0.20
2023-01-11T02:22:54.740Z,0.10
2023-01-11T02:27:17.567Z,0.20
2023-01-11T02:31:31.277Z,0.20
2023-01-11T02:35:44.105Z,0.30
2023-01-11T02:40:00.014Z,0.17
2023-01-11T02:44:29.330Z,0.40
2023-01-11T02:48:40.595Z,0.50
2023-01-11T02:52:51.908Z,0.38
2023-01-11T02:56:59.276Z,0.35
2023-01-11T03:01:02.382Z,0.40
2023-01-11T03:05:12.437Z,0.43
2023-01-11T03:09:21.895Z,0.30
2023-01-11T03:13:36.983Z,0.40
2023-01-11T03:17:49.436Z,0.20
2023-01-11T03:22:00.606Z,0.20
2023-01-11T03:26:12.564Z,0.10
2023-01-11T03:30:21.552Z,0.10
2023-01-11T03:34:28.699Z,0.20
2023-01-11T03:38:38.667Z,0.20
2023-01-11T03:43:00.684Z,0.20
2023-01-11T03:47:07.667Z,0.10
2023-01-11T03:51:13.565Z,0.10
2023-01-11T03:55:18.295Z,0.13
2023-01-11T03:59:21.259Z,0.10
2023-01-11T04:03:26.957Z,0.10
2023-01-11T04:07:30.177Z,0.05
2023-01-11T04:11:34.259Z,0.10
2023-01-11T04:15:37.057Z,0.10
2023-01-11T04:19:39.778Z,0.20
2023-01-11T04:23:42.553Z,0.00
2023-01-11T04:27:46.648Z,0.10
2023-01-11T04:31:49.384Z,0.00
2023-01-11T04:35:52.219Z,0.00
2023-01-11T04:39:55.069Z,0.20
2023-01-11T04:43:59.165Z,0.10
2023-01-11T04:48:01.936Z,0.10
2023-01-11T04:52:04.949Z,0.10
2023-01-11T04:56:08.633Z,0.10
2023-01-11T05:00:15.758Z,0.00
2023-01-11T05:04:18.597Z,0.00
2023-01-11T05:08:21.389Z,0.10
2023-01-11T05:12:24.138Z,0.08
2023-01-11T05:16:28.583Z,0.00
2023-01-11T05:20:31.389Z,0.00
2023-01-11T05:24:34.319Z,0.10
2023-01-11T05:28:37.210Z,0.00
2023-01-11T05:32:41.370Z,0.10
2023-01-11T05:36:45.028Z,0.10
2023-01-11T05:40:55.043Z,0.10
2023-01-11T05:45:15.404Z,0.13
2023-01-11T05:49:19.565Z,0.17
2023-01-11T05:53:25.044Z,0.20
2023-01-11T05:57:27.785Z,1.10
2023-01-11T06:01:31.388Z,1.92
2023-01-11T06:05:38.576Z,0.20
2023-01-11T06:09:41.303Z,0.20
2023-01-11T06:13:44.163Z,0.32
2023-01-11T06:17:46.886Z,0.30
2023-01-11T06:21:50.915Z,0.20
2023-01-11T06:25:53.709Z,0.32
2023-01-11T06:29:56.463Z,0.10
2023-01-11T06:33:59.249Z,0.05
2023-01-11T06:38:03.320Z,0.10
2023-01-11T06:42:06.114Z,0.15
2023-01-11T06:46:12.240Z,0.10
2023-01-11T06:50:15.028Z,0.60
2023-01-11T06:54:22.962Z,0.30
2023-01-11T06:58:26.914Z,0.10
2023-01-11T07:02:29.810Z,0.10
2023-01-11T07:06:35.948Z,0.40
2023-01-11T07:10:40.024Z,0.25
2023-01-11T07:14:42.749Z,0.30
2023-01-11T07:18:46.668Z,0.10
2023-01-11T07:22:49.514Z,0.30
2023-01-11T07:26:54.875Z,0.20
2023-01-11T07:30:59.773Z,0.20
2023-01-11T07:35:03.033Z,0.17
2023-01-11T07:39:05.856Z,0.10
2023-01-11T07:43:14.665Z,0.20
2023-01-11T07:47:17.515Z,0.10
2023-01-11T07:51:24.084Z,0.20
2023-01-11T07:55:26.818Z,0.20
2023-01-11T07:59:31.297Z,0.28
2023-01-11T08:03:34.343Z,0.30
2023-01-11T08:07:37.163Z,0.30
2023-01-11T08:11:57.455Z,0.20
2023-01-11T08:16:01.635Z,0.20
2023-01-11T08:20:04.911Z,0.20
2023-01-11T08:24:08.154Z,0.20
2023-01-11T08:28:12.540Z,0.17
2023-01-11T08:32:16.650Z,0.15
2023-01-11T08:36:19.423Z,0.10
2023-01-11T08:40:24.048Z,0.10
2023-01-11T08:44:35.044Z,0.20
2023-01-11T08:48:39.320Z,0.63
2023-01-11T08:52:43.313Z,0.28
2023-01-11T08:56:46.112Z,0.40
2023-01-11T09:00:48.928Z,0.40
2023-01-11T09:04:52.981Z,0.30
2023-01-11T09:08:55.718Z,0.20
2023-01-11T09:12:58.805Z,0.20
2023-01-11T09:17:01.539Z,0.35
2023-01-11T09:21:05.781Z,0.47
2023-01-11T09:25:09.896Z,0.40
2023-01-11T09:29:12.763Z,0.35
2023-01-11T09:33:15.725Z,0.45
2023-01-11T09:37:22.599Z,0.40
2023-01-11T09:41:38.242Z,0.30
2023-01-11T09:45:46.700Z,0.50
2023-01-11T09:49:55.994Z,0.38
2023-01-11T09:54:02.030Z,0.40
2023-01-11T09:58:22.963Z,0.32
2023-01-11T10:02:38.277Z,0.20
2023-01-11T10:06:50.133Z,0.30
2023-01-11T10:18:28.383Z,0.60
2023-01-11T10:20:01.844Z,0.70
2023-01-11T10:24:12.057Z,0.60
2023-01-11T10:28:23.109Z,1.30
2023-01-11T10:32:54.203Z,0.90
2023-01-11T10:37:18.682Z,1.00
2023-01-11T10:41:33.773Z,1.02
2023-01-11T10:45:43.335Z,1.52
2023-01-11T10:49:51.411Z,1.65
2023-01-11T10:58:18.393Z,2.30
2023-01-11T11:02:40.519Z,2.45
2023-01-11T11:06:52.388Z,3.45
2023-01-11T11:11:00.720Z,3.72
2023-01-11T11:15:11.035Z,4.07
2023-01-11T11:19:20.921Z,3.47
2023-01-11T11:23:25.528Z,3.80
2023-01-11T11:27:31.430Z,3.53
2023-01-11T11:31:37.294Z,3.65
2023-01-11T11:35:43.908Z,3.90
2023-01-11T11:39:50.065Z,3.80
2023-01-11T11:43:52.836Z,3.78
2023-01-11T11:48:03.738Z,4.15
2023-01-11T11:52:12.430Z,3.85
2023-01-11T11:56:18.219Z,4.05
2023-01-11T12:00:26.826Z,3.88
2023-01-11T12:04:42.483Z,4.20
2023-01-11T12:08:46.756Z,4.00
2023-01-11T12:12:52.003Z,3.67
2023-01-11T12:16:54.767Z,3.40
2023-01-11T12:20:57.586Z,4.50
2023-01-11T12:25:24.102Z,3.38
2023-01-11T12:29:40.463Z,3.72
2023-01-11T12:33:50.394Z,3.78
2023-01-11T12:38:05.384Z,3.80
2023-01-11T12:42:28.379Z,4.55
2023-01-11T12:46:55.014Z,4.07
2023-01-11T12:51:22.764Z,4.95
2023-01-11T12:55:50.169Z,4.80
2023-01-11T13:00:27.764Z,4.63
2023-01-11T13:04:46.112Z,4.88
2023-01-11T13:08:58.493Z,4.63
2023-01-11T13:13:07.540Z,3.95
2023-01-11T13:17:23.873Z,4.03
2023-01-11T13:21:33.159Z,4.20
2023-01-11T13:25:42.123Z,3.75
2023-01-11T13:29:48.650Z,4.00
2023-01-11T13:33:59.329Z,4.10
2023-01-11T13:38:11.564Z,5.07
2023-01-11T13:42:18.615Z,5.43
2023-01-11T13:46:41.518Z,5.40
2023-01-11T13:51:04.578Z,5.20
2023-01-11T13:55:20.974Z,5.47
2023-01-11T13:59:31.999Z,5.72
2023-01-11T14:03:45.427Z,5.32
2023-01-11T14:08:05.253Z,5.30
2023-01-11T14:12:15.981Z,5.82
2023-01-11T14:16:24.920Z,6.10
2023-01-11T14:20:34.091Z,6.22
2023-01-11T14:24:42.001Z,4.90
2023-01-11T14:29:00.628Z,5.40
2023-01-11T14:33:40.341Z,5.57
2023-01-11T14:38:22.426Z,5.07
2023-01-11T14:43:04.229Z,4.53
2023-01-11T14:47:37.964Z,4.32
2023-01-11T14:51:57.447Z,4.20
2023-01-11T14:56:00.219Z,4.10
2023-01-11T15:00:05.841Z,3.63
2023-01-11T15:04:21.997Z,4.07
2023-01-11T15:08:27.305Z,4.45
2023-01-11T15:12:35.138Z,4.07
2023-01-11T15:16:57.807Z,3.97
2023-01-11T15:21:05.650Z,4.18
2023-01-11T15:25:25.262Z,4.00
2023-01-11T15:29:31.013Z,3.75
2023-01-11T15:33:48.219Z,4.20
2023-01-11T15:37:55.192Z,4.10
2023-01-11T15:42:18.318Z,3.97
2023-01-11T15:46:54.061Z,3.85
2023-01-11T15:51:37.074Z,3.80
2023-01-11T15:56:22.037Z,3.70
2023-01-11T16:00:47.741Z,3.60
2023-01-11T16:04:54.441Z,3.53
2023-01-11T16:09:07.576Z,3.53
2023-01-11T16:13:30.597Z,3.40
2023-01-11T16:17:33.923Z,2.90
2023-01-11T16:21:39.360Z,3.45
2023-01-11T16:25:45.599Z,3.50
2023-01-11T16:29:50.964Z,3.47
2023-01-11T16:33:54.240Z,3.03
2023-01-11T16:38:01.404Z,3.20
2023-01-11T16:42:07.593Z,3.08
2023-01-11T16:46:36.369Z,3.35
2023-01-11T16:50:48.429Z,3.20
2023-01-11T16:54:51.194Z,2.53
2023-01-11T16:59:07.338Z,3.00
2023-01-11T17:03:25.188Z,2.67
2023-01-11T17:07:29.746Z,2.53
2023-01-11T17:11:37.771Z,2.90
2023-01-11T17:15:52.882Z,2.80
2023-01-11T17:19:59.040Z,2.58
2023-01-11T17:24:04.452Z,2.88
2023-01-11T17:28:14.564Z,2.83
2023-01-11T17:32:29.279Z,3.13
2023-01-11T17:36:34.365Z,2.97
2023-01-11T17:40:40.367Z,3.00
2023-01-11T17:45:01.480Z,3.20
2023-01-11T17:49:05.916Z,2.67
2023-01-11T17:53:16.882Z,2.88
2023-01-11T17:57:20.111Z,2.70
2023-01-11T18:01:24.983Z,2.80
2023-01-11T18:05:30.702Z,2.95
2023-01-11T18:09:37.176Z,3.20
2023-01-11T18:13:40.182Z,2.90
2023-01-11T18:17:42.927Z,3.03
2023-01-11T18:27:28.842Z,3.85
2023-01-11T18:31:32.066Z,2.70
2023-01-11T18:35:43.861Z,3.00
2023-01-11T18:39:46.778Z,2.97
2023-01-11T18:43:51.241Z,2.45
2023-01-11T18:47:54.471Z,3.75
2023-01-11T18:51:57.564Z,2.60
2023-01-11T18:56:00.992Z,2.67
2023-01-11T19:00:11.649Z,2.38
2023-01-11T19:04:20.653Z,3.08
2023-01-11T19:08:24.020Z,2.65
2023-01-11T19:12:29.893Z,3.20
2023-01-11T19:21:09.275Z,2.97
2023-01-11T19:25:13.054Z,2.60
2023-01-11T19:29:17.972Z,2.15
2023-01-11T19:33:22.392Z,2.45
2023-01-11T19:37:25.804Z,2.58
2023-01-11T19:41:48.884Z,2.72
2023-01-11T19:45:56.715Z,2.53
2023-01-11T19:50:01.395Z,2.72
2023-01-11T19:54:06.169Z,2.60
2023-01-11T19:58:09.371Z,2.50
2023-01-11T20:02:13.910Z,2.30
2023-01-11T20:06:21.569Z,2.67
2023-01-11T20:10:24.724Z,2.42
2023-01-11T20:14:28.257Z,2.45
2023-01-11T20:18:31.486Z,2.10
2023-01-11T20:22:36.184Z,2.35
2023-01-11T20:26:39.555Z,2.45
2023-01-11T20:30:42.983Z,2.35
2023-01-11T20:34:46.045Z,2.70
2023-01-11T20:38:50.800Z,2.65
2023-01-11T20:42:54.164Z,2.65
2023-01-11T20:46:57.872Z,1.83
2023-01-11T20:51:04.599Z,2.40
2023-01-11T20:55:10.585Z,2.50
2023-01-11T20:59:20.095Z,2.13
2023-01-11T21:03:31.365Z,2.30
2023-01-11T21:07:35.204Z,1.67
2023-01-11T21:11:40.707Z,2.10
2023-01-11T21:20:07.972Z,2.20
2023-01-11T21:24:17.072Z,2.30
2023-01-11T21:28:21.285Z,2.17
2023-01-11T21:32:42.675Z,2.13
2023-01-11T21:36:46.138Z,1.92
2023-01-11T21:41:04.083Z,2.03
2023-01-11T21:45:12.668Z,1.85
2023-01-11T21:49:16.092Z,2.50
2023-01-11T21:53:18.963Z,1.80
2023-01-11T21:57:23.951Z,1.70
2023-01-11T22:01:28.920Z,1.90
2023-01-11T22:05:33.995Z,2.15
2023-01-11T22:09:36.880Z,2.40
2023-01-11T22:13:41.880Z,2.05
2023-01-11T22:17:46.296Z,1.52
2023-01-11T22:21:58.316Z,1.45
2023-01-11T22:26:05.125Z,1.80
2023-01-11T22:30:17.922Z,1.98
2023-01-11T22:34:23.260Z,2.10
2023-01-11T22:38:26.175Z,1.77
2023-01-11T22:42:29.006Z,2.15
2023-01-11T22:46:34.733Z,1.67
2023-01-11T22:50:40.508Z,2.08
2023-01-11T22:54:43.446Z,2.33
2023-01-11T22:58:46.301Z,1.80
2023-01-11T23:02:49.115Z,2.10
2023-01-11T23:06:53.301Z,1.85
2023-01-11T23:10:59.637Z,2.00
2023-01-11T23:15:02.430Z,2.13
2023-01-11T23:19:06.599Z,2.42
2023-01-11T23:23:11.212Z,2.08
2023-01-11T23:27:14.039Z,1.55
2023-01-11T23:31:18.685Z,1.90
2023-01-11T23:35:21.689Z,1.35
2023-01-11T23:39:25.920Z,1.08
2023-01-11T23:43:28.653Z,1.60
2023-01-11T23:47:31.483Z,1.33
2023-01-11T23:51:45.474Z,1.40
2023-01-11T23:55:56.581Z,1.40
2023-01-11T23:59:59.482Z,1.20
